createdAt,value
2022-11-16T00:02:13.804Z,12.30
2022-11-16T00:04:42.583Z,12.30
2022-11-16T00:07:11.483Z,12.30
2022-11-16T00:09:39.728Z,12.30
2022-11-16T00:12:11.287Z,12.30
2022-11-16T00:14:39.448Z,12.30
2022-11-16T00:17:07.671Z,12.30
2022-11-16T00:19:37.153Z,12.30
2022-11-16T00:22:05.209Z,12.30
2022-11-16T00:24:33.337Z,12.30
2022-11-16T00:27:01.492Z,12.40
2022-11-16T00:29:29.624Z,12.40
2022-11-16T00:31:57.667Z,12.40
2022-11-16T00:34:26.098Z,12.40
2022-11-16T00:36:55.518Z,12.40
2022-11-16T00:39:23.807Z,12.40
2022-11-16T00:41:52.032Z,12.40
2022-11-16T00:44:20.109Z,12.40
2022-11-16T00:46:48.319Z,12.40
2022-11-16T00:49:16.696Z,12.40
2022-11-16T00:51:44.779Z,12.40
2022-11-16T00:54:14.210Z,12.40
2022-11-16T00:56:42.396Z,12.40
2022-11-16T00:59:10.449Z,12.40
2022-11-16T01:01:38.670Z,12.50
2022-11-16T01:04:06.824Z,12.50
2022-11-16T01:06:34.864Z,12.50
2022-11-16T01:09:03.351Z,12.50
2022-11-16T01:11:50.274Z,12.50
2022-11-16T01:14:18.450Z,12.50
2022-11-16T01:16:49.652Z,12.50
2022-11-16T01:19:17.662Z,12.50
2022-11-16T01:21:45.837Z,12.40
2022-11-16T01:24:13.977Z,12.40
2022-11-16T01:26:43.362Z,12.40
2022-11-16T01:29:11.431Z,12.40
2022-11-16T01:31:39.476Z,12.40
2022-11-16T01:34:07.508Z,12.40
2022-11-16T01:36:36.815Z,12.40
2022-11-16T01:39:06.283Z,12.40
2022-11-16T01:41:34.375Z,12.50
2022-11-16T01:44:06.437Z,12.40
2022-11-16T01:46:34.798Z,12.40
2022-11-16T01:49:06.589Z,12.40
2022-11-16T01:51:35.629Z,12.40
2022-11-16T01:54:07.968Z,12.40
2022-11-16T01:56:38.656Z,12.50
2022-11-16T01:59:08.492Z,12.40
2022-11-16T02:01:36.619Z,12.40
2022-11-16T02:04:05.031Z,12.50
2022-11-16T02:06:57.186Z,12.50
2022-11-16T02:09:54.590Z,12.50
2022-11-16T02:12:54.116Z,12.50
2022-11-16T02:15:28.419Z,12.50
2022-11-16T02:18:15.324Z,12.50
2022-11-16T02:21:04.687Z,12.50
2022-11-16T02:24:20.283Z,12.50
2022-11-16T02:27:16.802Z,12.50
2022-11-16T02:29:48.832Z,12.50
2022-11-16T02:32:21.794Z,12.50
2022-11-16T02:34:53.838Z,12.50
2022-11-16T02:37:24.633Z,12.50
2022-11-16T02:39:58.813Z,12.50
2022-11-16T02:42:32.194Z,12.50
2022-11-16T02:45:04.157Z,12.50
2022-11-16T02:47:35.454Z,12.50
2022-11-16T02:50:07.654Z,12.50
2022-11-16T02:52:38.050Z,12.50
2022-11-16T02:55:06.781Z,12.50
2022-11-16T02:57:50.268Z,12.50
2022-11-16T03:00:23.675Z,12.50
2022-11-16T03:03:11.128Z,12.50
2022-11-16T03:05:43.276Z,12.50
2022-11-16T03:08:18.644Z,12.60
2022-11-16T03:11:09.136Z,12.50
2022-11-16T03:13:39.693Z,12.50
2022-11-16T03:16:16.175Z,12.50
2022-11-16T03:18:46.391Z,12.40
2022-11-16T03:21:19.341Z,12.30
2022-11-16T03:23:47.799Z,12.20
2022-11-16T03:26:21.551Z,12.20
2022-11-16T03:28:56.199Z,12.10
2022-11-16T03:31:30.630Z,12.10
2022-11-16T03:34:03.450Z,12.00
2022-11-16T03:36:34.875Z,12.00
2022-11-16T03:39:08.314Z,12.00
2022-11-16T03:41:41.032Z,12.00
2022-11-16T03:44:11.515Z,12.00
2022-11-16T03:46:41.929Z,12.00
2022-11-16T03:49:10.262Z,12.00
2022-11-16T03:51:39.700Z,12.00
2022-11-16T03:54:07.910Z,11.90
2022-11-16T03:56:36.005Z,11.90
2022-11-16T03:59:04.212Z,11.90
2022-11-16T04:01:32.417Z,11.90
2022-11-16T04:04:01.901Z,11.90
2022-11-16T04:06:47.475Z,11.80
2022-11-16T04:09:32.904Z,11.80
2022-11-16T04:12:18.293Z,11.80
2022-11-16T04:15:04.296Z,11.90
2022-11-16T04:17:49.790Z,11.80
2022-11-16T04:20:37.599Z,11.80
2022-11-16T04:23:28.251Z,11.80
2022-11-16T04:25:56.599Z,11.80
2022-11-16T04:28:27.472Z,11.80
2022-11-16T04:31:17.049Z,11.70
2022-11-16T04:34:03.872Z,11.70
2022-11-16T04:36:50.568Z,11.70
2022-11-16T04:39:18.788Z,11.70
2022-11-16T04:42:04.275Z,11.70
2022-11-16T04:44:49.767Z,11.70
2022-11-16T04:47:17.877Z,11.70
2022-11-16T04:49:45.870Z,11.70
2022-11-16T04:52:15.273Z,11.60
2022-11-16T04:54:43.414Z,11.60
2022-11-16T04:57:11.446Z,11.60
2022-11-16T04:59:39.587Z,11.60
2022-11-16T05:02:10.633Z,11.60
2022-11-16T05:04:41.225Z,11.60
2022-11-16T05:07:11.263Z,11.60
2022-11-16T05:09:43.019Z,11.50
2022-11-16T05:12:14.815Z,11.50
2022-11-16T05:14:43.216Z,11.50
2022-11-16T05:17:11.890Z,11.50
2022-11-16T05:19:57.647Z,11.50
2022-11-16T05:22:25.957Z,11.50
2022-11-16T05:24:55.995Z,11.60
2022-11-16T05:27:25.267Z,11.60
2022-11-16T05:29:54.324Z,11.60
2022-11-16T05:32:24.345Z,11.70
2022-11-16T05:34:52.537Z,11.70
2022-11-16T05:37:21.601Z,11.60
2022-11-16T05:39:49.784Z,11.70
2022-11-16T05:42:19.299Z,11.70
2022-11-16T05:44:47.331Z,11.70
2022-11-16T05:47:15.382Z,11.70
2022-11-16T05:49:43.472Z,11.70
2022-11-16T05:52:11.752Z,11.70
2022-11-16T05:54:39.837Z,11.70
2022-11-16T05:57:07.872Z,11.60
2022-11-16T05:59:37.324Z,11.60
2022-11-16T06:02:05.356Z,11.60
2022-11-16T06:04:34.703Z,11.50
2022-11-16T06:07:02.909Z,11.50
2022-11-16T06:09:31.048Z,11.50
2022-11-16T06:11:59.178Z,11.40
2022-11-16T06:14:27.214Z,11.40
2022-11-16T06:16:56.639Z,11.30
2022-11-16T06:19:28.285Z,11.30
2022-11-16T06:22:00.192Z,11.20
2022-11-16T06:24:28.330Z,11.20
2022-11-16T06:26:56.738Z,11.20
2022-11-16T06:29:24.945Z,11.10
2022-11-16T06:31:53.042Z,11.10
2022-11-16T06:34:22.513Z,11.00
2022-11-16T06:36:50.518Z,11.00
2022-11-16T06:39:18.917Z,10.90
2022-11-16T06:41:47.013Z,10.90
2022-11-16T06:44:15.156Z,10.80
2022-11-16T06:46:43.268Z,10.80
2022-11-16T06:49:11.484Z,10.80
2022-11-16T06:51:40.899Z,10.70
2022-11-16T06:54:09.280Z,10.60
2022-11-16T06:56:37.428Z,10.60
2022-11-16T06:59:05.556Z,10.50
2022-11-16T07:01:39.789Z,10.50
2022-11-16T07:04:11.993Z,10.50
2022-11-16T07:06:41.636Z,10.40
2022-11-16T07:09:10.600Z,10.30
2022-11-16T07:11:38.792Z,10.30
2022-11-16T07:14:06.886Z,10.30
2022-11-16T07:16:36.788Z,10.30
2022-11-16T07:19:05.240Z,10.30
2022-11-16T07:21:33.745Z,10.30
2022-11-16T07:24:04.312Z,10.30
2022-11-16T07:26:33.735Z,10.30
2022-11-16T07:29:02.980Z,10.30
2022-11-16T07:31:31.135Z,10.30
2022-11-16T07:33:59.424Z,10.30
2022-11-16T07:36:27.527Z,10.30
2022-11-16T07:38:55.574Z,10.30
2022-11-16T07:41:25.074Z,10.30
2022-11-16T07:43:54.180Z,10.30
2022-11-16T07:49:14.914Z,10.30
2022-11-16T07:51:43.300Z,10.30
2022-11-16T07:54:13.098Z,10.30
2022-11-16T07:56:42.828Z,10.30
2022-11-16T07:59:11.125Z,10.30
2022-11-16T08:01:39.384Z,10.30
2022-11-16T08:04:07.581Z,10.30
2022-11-16T08:06:35.729Z,10.40
2022-11-16T08:09:04.119Z,10.40
2022-11-16T08:11:32.546Z,10.40
2022-11-16T08:14:02.055Z,10.40
2022-11-16T08:16:33.323Z,10.50
2022-11-16T08:19:02.348Z,10.50
2022-11-16T08:21:30.507Z,10.50
2022-11-16T08:23:59.112Z,10.50
2022-11-16T08:26:28.328Z,10.60
2022-11-16T08:28:57.271Z,10.60
2022-11-16T08:31:28.750Z,10.70
2022-11-16T08:33:57.529Z,10.70
2022-11-16T08:36:25.766Z,10.90
2022-11-16T08:38:54.206Z,10.90
2022-11-16T08:41:22.694Z,11.00
2022-11-16T08:43:53.355Z,11.10
2022-11-16T08:46:22.008Z,11.20
2022-11-16T08:48:55.609Z,11.20
2022-11-16T08:51:24.025Z,11.20
2022-11-16T08:53:57.031Z,11.40
2022-11-16T08:56:27.191Z,11.40
2022-11-16T08:58:59.007Z,11.40
2022-11-16T09:01:30.225Z,11.40
2022-11-16T09:04:00.200Z,11.50
2022-11-16T09:06:29.267Z,11.50
2022-11-16T09:08:58.061Z,11.50
2022-11-16T09:11:27.243Z,11.50
2022-11-16T09:13:56.453Z,11.60
2022-11-16T09:16:26.618Z,11.70
2022-11-16T09:18:55.600Z,11.80
2022-11-16T09:21:27.158Z,11.80
2022-11-16T09:23:57.094Z,11.80
2022-11-16T09:26:26.384Z,11.80
2022-11-16T09:28:58.018Z,11.90
2022-11-16T09:31:27.503Z,11.90
2022-11-16T09:33:58.385Z,11.90
2022-11-16T09:36:28.786Z,12.00
2022-11-16T09:42:06.696Z,12.00
2022-11-16T09:44:47.114Z,12.10
2022-11-16T09:47:18.678Z,12.10
2022-11-16T09:49:52.484Z,12.20
2022-11-16T09:52:29.514Z,12.20
2022-11-16T09:54:59.835Z,12.30
2022-11-16T09:57:32.367Z,12.30
2022-11-16T10:00:05.542Z,12.30
2022-11-16T10:02:39.786Z,12.30
2022-11-16T10:05:15.542Z,12.30
2022-11-16T10:07:48.337Z,12.40
2022-11-16T10:10:17.942Z,12.30
2022-11-16T10:12:52.802Z,12.40
2022-11-16T10:15:38.898Z,12.50
2022-11-16T10:18:25.155Z,12.60
2022-11-16T10:21:07.427Z,12.70
2022-11-16T10:23:50.085Z,12.60
2022-11-16T10:26:26.733Z,12.70
2022-11-16T10:29:06.137Z,12.70
2022-11-16T10:31:51.887Z,12.80
2022-11-16T10:34:23.859Z,12.90
2022-11-16T10:36:52.233Z,13.00
2022-11-16T10:39:22.014Z,13.00
2022-11-16T10:41:51.444Z,13.00
2022-11-16T10:44:26.446Z,13.10
2022-11-16T10:47:00.376Z,13.10
2022-11-16T10:49:35.330Z,13.10
2022-11-16T10:52:03.872Z,13.00
2022-11-16T10:54:33.507Z,13.10
2022-11-16T10:57:05.643Z,13.20
2022-11-16T10:59:44.661Z,13.20
2022-11-16T11:02:34.811Z,13.30
2022-11-16T11:05:09.000Z,13.30
2022-11-16T11:07:39.897Z,13.40
2022-11-16T11:10:30.734Z,13.40
2022-11-16T11:13:08.806Z,13.30
2022-11-16T11:15:37.742Z,13.30
2022-11-16T11:18:14.145Z,13.40
2022-11-16T11:20:45.393Z,13.50
2022-11-16T11:23:16.901Z,13.70
2022-11-16T11:25:54.165Z,13.60
2022-11-16T11:28:26.212Z,13.50
2022-11-16T11:31:00.224Z,13.50
2022-11-16T11:33:32.245Z,13.60
2022-11-16T11:36:05.432Z,13.70
2022-11-16T11:38:34.913Z,13.80
2022-11-16T11:41:06.078Z,13.80
2022-11-16T11:43:35.016Z,13.90
2022-11-16T11:46:13.231Z,13.90
2022-11-16T11:48:48.132Z,13.80
2022-11-16T11:51:23.614Z,13.70
2022-11-16T11:53:56.180Z,13.60
2022-11-16T11:56:27.211Z,13.50
2022-11-16T11:58:55.902Z,13.30
2022-11-16T12:01:56.196Z,13.30
2022-11-16T12:05:04.114Z,13.20
2022-11-16T12:07:48.585Z,13.10
2022-11-16T12:10:22.886Z,13.20
2022-11-16T12:13:04.937Z,13.20
2022-11-16T12:16:03.744Z,13.30
2022-11-16T12:18:46.202Z,13.50
2022-11-16T12:21:15.732Z,13.70
2022-11-16T12:24:10.356Z,13.60
2022-11-16T12:26:50.594Z,13.40
2022-11-16T12:29:26.754Z,13.20
2022-11-16T12:32:18.582Z,13.20
2022-11-16T12:35:01.420Z,13.30
2022-11-16T12:37:39.364Z,13.60
2022-11-16T12:40:31.576Z,13.90
2022-11-16T12:43:07.226Z,13.70
2022-11-16T12:46:02.428Z,13.80
2022-11-16T12:48:45.611Z,13.90
2022-11-16T12:51:30.377Z,14.00
2022-11-16T12:54:21.981Z,14.10
2022-11-16T12:56:58.403Z,14.10
2022-11-16T12:59:40.472Z,13.90
2022-11-16T13:02:22.255Z,13.90
2022-11-16T13:04:57.569Z,13.90
2022-11-16T13:07:30.115Z,13.80
2022-11-16T13:10:07.180Z,13.80
2022-11-16T13:12:36.663Z,13.80
2022-11-16T13:15:05.796Z,13.90
2022-11-16T13:17:39.864Z,13.80
2022-11-16T13:20:23.114Z,13.50
2022-11-16T13:22:59.427Z,13.40
2022-11-16T13:25:32.987Z,13.30
2022-11-16T13:28:08.744Z,13.20
2022-11-16T13:30:45.558Z,13.10
2022-11-16T13:33:30.946Z,13.10
2022-11-16T13:35:59.008Z,13.20
2022-11-16T13:38:52.721Z,13.20
2022-11-16T13:41:32.432Z,13.20
2022-11-16T13:44:01.111Z,13.10
2022-11-16T13:46:55.252Z,13.10
2022-11-16T13:49:30.897Z,13.10
2022-11-16T13:52:17.304Z,13.10
2022-11-16T13:54:51.318Z,13.10
2022-11-16T13:57:26.637Z,13.20
2022-11-16T14:00:10.442Z,13.20
2022-11-16T14:02:40.290Z,13.20
2022-11-16T14:05:17.960Z,13.20
2022-11-16T14:07:49.613Z,13.10
2022-11-16T14:10:51.020Z,13.10
2022-11-16T14:13:38.341Z,13.00
2022-11-16T14:16:55.219Z,13.00
2022-11-16T14:19:57.554Z,13.00
2022-11-16T14:22:55.983Z,13.10
2022-11-16T14:25:32.428Z,13.10
2022-11-16T14:28:17.663Z,13.10
2022-11-16T14:30:56.073Z,13.10
2022-11-16T14:33:35.077Z,13.10
2022-11-16T14:36:05.841Z,13.00
2022-11-16T14:38:37.852Z,13.00
2022-11-16T14:41:07.868Z,12.90
2022-11-16T14:43:42.499Z,12.90
2022-11-16T14:46:18.266Z,12.80
2022-11-16T14:48:47.979Z,12.80
2022-11-16T14:51:21.244Z,12.70
2022-11-16T14:53:53.798Z,12.70
2022-11-16T14:56:22.700Z,12.60
2022-11-16T14:58:55.208Z,12.60
2022-11-16T15:01:25.911Z,12.50
2022-11-16T15:03:57.910Z,12.50
2022-11-16T15:06:27.727Z,12.40
2022-11-16T15:09:01.115Z,12.40
2022-11-16T15:11:46.388Z,12.30
2022-11-16T15:14:21.041Z,12.30
2022-11-16T15:16:53.472Z,12.30
2022-11-16T15:19:22.511Z,12.20
2022-11-16T15:21:54.880Z,12.20
2022-11-16T15:24:32.766Z,12.10
2022-11-16T15:27:12.555Z,12.10
2022-11-16T15:29:40.684Z,12.00
2022-11-16T15:32:15.676Z,12.00
2022-11-16T15:34:43.979Z,12.00
2022-11-16T15:37:15.125Z,12.00
2022-11-16T15:39:44.893Z,12.00
2022-11-16T15:42:15.672Z,12.00
2022-11-16T15:44:44.439Z,11.90
2022-11-16T15:47:14.031Z,11.90
2022-11-16T15:49:44.141Z,11.80
2022-11-16T15:52:12.334Z,11.80
2022-11-16T15:54:54.269Z,11.70
2022-11-16T15:57:25.461Z,11.70
2022-11-16T15:59:55.758Z,11.60
2022-11-16T16:02:27.568Z,11.50
2022-11-16T16:04:55.705Z,11.50
2022-11-16T16:07:40.329Z,11.50
2022-11-16T16:10:23.555Z,11.50
2022-11-16T16:12:54.703Z,11.50
2022-11-16T16:15:24.920Z,11.60
2022-11-16T16:17:54.860Z,11.60
2022-11-16T16:20:25.366Z,11.60
2022-11-16T16:22:55.847Z,11.60
2022-11-16T16:25:29.455Z,11.50
2022-11-16T16:27:59.159Z,11.50
2022-11-16T16:30:28.834Z,11.40
2022-11-16T16:32:57.360Z,11.40
2022-11-16T16:35:26.645Z,11.30
2022-11-16T16:37:59.203Z,11.30
2022-11-16T16:40:27.573Z,11.30
2022-11-16T16:42:58.836Z,11.30
2022-11-16T16:45:37.168Z,11.30
2022-11-16T16:48:05.640Z,11.20
2022-11-16T16:50:33.705Z,11.20
2022-11-16T16:53:01.793Z,11.20
2022-11-16T16:55:32.951Z,11.20
2022-11-16T16:58:06.855Z,11.10
2022-11-16T17:00:34.941Z,11.10
2022-11-16T17:03:02.991Z,11.10
2022-11-16T17:05:32.759Z,11.00
2022-11-16T17:08:00.793Z,11.00
2022-11-16T17:10:28.791Z,11.00
2022-11-16T17:12:57.249Z,10.90
2022-11-16T17:15:26.835Z,10.90
2022-11-16T17:17:54.902Z,10.90
2022-11-16T17:20:23.046Z,10.90
2022-11-16T17:22:51.091Z,10.90
2022-11-16T17:25:20.767Z,10.90
2022-11-16T17:27:49.185Z,10.90
2022-11-16T17:30:17.552Z,10.90
2022-11-16T17:32:46.990Z,10.90
2022-11-16T17:35:15.131Z,10.90
2022-11-16T17:37:43.405Z,10.90
2022-11-16T17:40:11.997Z,10.80
2022-11-16T17:42:40.135Z,10.80
2022-11-16T17:45:08.827Z,10.80
2022-11-16T17:47:36.827Z,10.80
2022-11-16T17:50:08.765Z,10.80
2022-11-16T17:52:36.854Z,10.80
2022-11-16T17:55:05.298Z,10.80
2022-11-16T17:57:33.359Z,10.80
2022-11-16T18:00:01.494Z,10.80
2022-11-16T18:02:29.571Z,10.80
2022-11-16T18:04:57.624Z,10.80
2022-11-16T18:07:27.394Z,10.80
2022-11-16T18:09:55.589Z,10.90
2022-11-16T18:12:23.565Z,10.90
2022-11-16T18:15:21.324Z,10.90
2022-11-16T18:17:39.944Z,11.00
2022-11-16T18:20:09.193Z,11.00
2022-11-16T18:22:38.667Z,11.10
2022-11-16T18:25:07.503Z,10.90
2022-11-16T18:27:35.736Z,10.90
2022-11-16T18:30:04.158Z,11.00
2022-11-16T18:32:33.495Z,11.00
2022-11-16T18:35:01.787Z,11.00
2022-11-16T18:37:29.856Z,10.90
2022-11-16T18:39:59.268Z,10.90
2022-11-16T18:42:27.450Z,10.90
2022-11-16T18:44:55.795Z,10.90
2022-11-16T18:47:23.975Z,10.90
2022-11-16T18:49:52.127Z,11.00
2022-11-16T18:52:20.369Z,11.00
2022-11-16T18:54:48.559Z,11.00
2022-11-16T18:57:18.084Z,11.10
2022-11-16T18:59:46.308Z,11.00
2022-11-16T19:02:14.432Z,11.10
2022-11-16T19:04:42.803Z,11.10
2022-11-16T19:07:11.270Z,11.00
2022-11-16T19:09:39.567Z,11.10
2022-11-16T19:12:08.173Z,11.00
2022-11-16T19:14:39.460Z,11.00
2022-11-16T19:17:07.539Z,11.00
2022-11-16T19:19:35.730Z,11.00
2022-11-16T19:22:03.874Z,11.00
2022-11-16T19:24:31.951Z,10.90
2022-11-16T19:27:00.138Z,10.90
2022-11-16T19:29:28.249Z,10.90
2022-11-16T19:31:57.712Z,10.90
2022-11-16T19:34:32.003Z,10.80
2022-11-16T19:37:01.382Z,10.80
2022-11-16T19:39:29.962Z,10.80
2022-11-16T19:41:58.130Z,10.90
2022-11-16T19:44:26.229Z,10.80
2022-11-16T19:46:54.551Z,10.80
2022-11-16T19:49:24.322Z,10.80
2022-11-16T19:51:52.721Z,10.80
2022-11-16T19:54:20.770Z,10.70
2022-11-16T19:56:54.720Z,10.70
2022-11-16T19:59:23.839Z,10.70
2022-11-16T20:01:51.981Z,10.70
2022-11-16T20:04:20.000Z,10.70
2022-11-16T20:06:49.540Z,10.70
2022-11-16T20:09:17.844Z,10.70
2022-11-16T20:11:45.921Z,10.70
2022-11-16T20:14:15.266Z,10.70
2022-11-16T20:16:46.733Z,10.70
2022-11-16T20:19:17.308Z,10.70
2022-11-16T20:21:45.807Z,10.70
2022-11-16T20:24:16.512Z,10.70
2022-11-16T20:26:46.461Z,10.80
2022-11-16T20:29:15.878Z,10.80
2022-11-16T20:31:45.447Z,10.80
2022-11-16T20:34:14.949Z,10.80
2022-11-16T20:36:45.297Z,10.80
2022-11-16T20:39:16.311Z,10.80
2022-11-16T20:41:45.382Z,10.80
2022-11-16T20:44:17.088Z,10.80
2022-11-16T20:46:46.129Z,10.80
2022-11-16T20:49:14.529Z,10.80
2022-11-16T20:51:42.593Z,10.80
2022-11-16T20:54:10.620Z,10.80
2022-11-16T20:56:40.150Z,10.90
2022-11-16T20:59:08.292Z,10.90
2022-11-16T21:01:36.747Z,10.90
2022-11-16T21:04:06.637Z,10.90
2022-11-16T21:06:35.009Z,11.00
2022-11-16T21:09:04.803Z,11.00
2022-11-16T21:11:54.777Z,10.90
2022-11-16T21:14:24.021Z,11.00
2022-11-16T21:16:52.227Z,11.10
2022-11-16T21:19:20.467Z,11.10
2022-11-16T21:21:48.563Z,11.10
2022-11-16T21:24:17.653Z,11.10
2022-11-16T21:26:45.820Z,11.10
2022-11-16T21:29:13.850Z,11.20
2022-11-16T21:31:43.320Z,11.20
2022-11-16T21:34:11.495Z,11.20
2022-11-16T21:36:39.666Z,11.20
2022-11-16T21:39:08.130Z,11.20
2022-11-16T21:41:36.192Z,11.20
2022-11-16T21:44:04.263Z,11.20
2022-11-16T21:46:32.327Z,11.20
2022-11-16T21:49:01.895Z,11.30
2022-11-16T21:51:30.822Z,11.30
2022-11-16T21:53:59.023Z,11.30
2022-11-16T21:56:27.504Z,11.30
2022-11-16T21:58:55.907Z,11.30
2022-11-16T22:01:25.179Z,11.30
2022-11-16T22:04:07.229Z,11.30
2022-11-16T22:06:54.325Z,11.30
2022-11-16T22:09:22.896Z,11.30
2022-11-16T22:11:51.108Z,11.30
2022-11-16T22:14:19.183Z,11.40
2022-11-16T22:16:47.565Z,11.40
2022-11-16T22:19:15.616Z,11.40
2022-11-16T22:21:45.037Z,11.30
2022-11-16T22:24:13.312Z,11.30
2022-11-16T22:26:41.698Z,11.30
2022-11-16T22:29:09.753Z,11.30
2022-11-16T22:31:38.007Z,11.30
2022-11-16T22:34:06.154Z,11.20
2022-11-16T22:36:34.276Z,11.20
2022-11-16T22:39:03.715Z,11.10
2022-11-16T22:41:31.771Z,11.10
2022-11-16T22:43:59.876Z,11.00
2022-11-16T22:46:28.028Z,11.00
2022-11-16T22:48:56.206Z,11.00
2022-11-16T22:51:25.860Z,10.90
2022-11-16T22:53:55.006Z,11.00
2022-11-16T22:56:25.296Z,10.90
2022-11-16T22:58:53.785Z,10.90
2022-11-16T23:01:22.041Z,10.90
2022-11-16T23:03:50.497Z,10.90
2022-11-16T23:06:18.937Z,10.90
2022-11-16T23:08:47.144Z,10.80
2022-11-16T23:11:34.296Z,10.80
2022-11-16T23:14:22.286Z,10.80
2022-11-16T23:16:50.507Z,10.80
2022-11-16T23:19:38.528Z,10.90
2022-11-16T23:22:25.016Z,10.90
2022-11-16T23:25:10.542Z,10.90
2022-11-16T23:27:42.567Z,10.90
2022-11-16T23:30:13.761Z,10.90
2022-11-16T23:32:42.327Z,10.90
2022-11-16T23:35:11.120Z,10.80
2022-11-16T23:37:51.644Z,10.90
2022-11-16T23:40:20.061Z,10.80
2022-11-16T23:43:05.606Z,10.80
2022-11-16T23:45:35.035Z,10.80
2022-11-16T23:48:03.264Z,10.80
2022-11-16T23:50:31.374Z,10.80
2022-11-16T23:52:59.524Z,10.80
2022-11-16T23:55:28.017Z,10.80
2022-11-16T23:57:56.079Z,10.80
